Time;durP1;ratioP1;P1;durP2;ratioP2;P2;SDS_P1;SDS_P2;PMS_P1;PMS_P2;Temp;Humidity;BMP_temperature;BMP_pressure;BME280_temperature;BME280_humidity;BME280_pressure;Samples;Min_cycle;Max_cycle;Signal;HPM_P1;HPM_P2
2023/06/01 00:00:15;;;;;;;7.68;3.25;;;;;;;;;;5112174;28;20044;-85
2023/06/01 00:02:42;;;;;;;5.97;3.53;;;;;;;;;;5112326;28;20044;-85
2023/06/01 00:05:09;;;;;;;4.60;3.60;;;;;;;;;;5116208;28;20225;-85
2023/06/01 00:07:37;;;;;;;3.80;3.42;;;;;;;;;;5116066;28;20048;-85
2023/06/01 00:10:05;;;;;;;5.95;3.58;;;;;;;;;;5116138;28;20051;-85
2023/06/01 00:12:32;;;;;;;4.45;3.42;;;;;;;;;;5116130;28;20058;-85
2023/06/01 00:14:59;;;;;;;3.78;3.47;;;;;;;;;;5116018;28;20039;-85
2023/06/01 00:17:28;;;;;;;5.60;3.42;;;;;;;;;;5117418;28;20058;-85
2023/06/01 00:19:56;;;;;;;3.78;3.38;;;;;;;;;;5116965;28;20040;-84
2023/06/01 00:22:23;;;;;;;6.55;3.75;;;;;;;;;;5115716;28;20452;-85
2023/06/01 00:24:51;;;;;;;6.53;3.63;;;;;;;;;;5115983;28;20043;-85
2023/06/01 00:27:18;;;;;;;7.22;3.58;;;;;;;;;;5116767;28;20126;-85
2023/06/01 00:29:45;;;;;;;7.55;3.85;;;;;;;;;;5116841;28;20051;-85
2023/06/01 00:32:12;;;;;;;5.97;3.95;;;;;;;;;;5115597;28;20171;-84
2023/06/01 00:34:40;;;;;;;5.68;3.60;;;;;;;;;;5115517;28;20043;-85
2023/06/01 00:37:07;;;;;;;5.82;3.83;;;;;;;;;;5116491;28;20491;-85
2023/06/01 00:39:34;;;;;;;7.05;4.35;;;;;;;;;;5115654;28;20051;-84
2023/06/01 00:42:02;;;;;;;9.77;3.95;;;;;;;;;;5116307;28;20050;-84
2023/06/01 00:44:29;;;;;;;4.15;3.83;;;;;;;;;;5115755;28;20457;-85
2023/06/01 00:46:59;;;;;;;4.45;3.90;;;;;;;;;;5115381;28;20394;-84
2023/06/01 00:49:27;;;;;;;9.45;4.10;;;;;;;;;;5115644;28;20052;-85
2023/06/01 00:51:54;;;;;;;4.45;4.05;;;;;;;;;;5115442;28;20077;-84
2023/06/01 00:54:21;;;;;;;5.90;3.72;;;;;;;;;;5116368;28;20481;-85
2023/06/01 00:56:49;;;;;;;5.68;3.60;;;;;;;;;;5116380;28;20106;-85
2023/06/01 00:59:16;;;;;;;6.55;3.70;;;;;;;;;;5116155;28;20051;-84
2023/06/01 01:01:43;;;;;;;7.25;3.60;;;;;;;;;;5115054;28;20047;-85
2023/06/01 01:04:13;;;;;;;5.65;3.30;;;;;;;;;;5114820;28;20400;-84
2023/06/01 01:06:49;;;;;;;6.38;3.65;;;;;;;;;;5115043;28;20051;-85
2023/06/01 01:09:33;;;;;;;5.82;4.05;;;;;;;;;;5115024;28;20077;-84
2023/06/01 01:12:01;;;;;;;6.20;3.47;;;;;;;;;;5114853;28;20056;-86
2023/06/01 01:14:35;;;;;;;4.82;3.53;;;;;;;;;;5115171;28;20060;-86
2023/06/01 01:17:07;;;;;;;5.03;3.78;;;;;;;;;;5114832;28;20077;-87
2023/06/01 01:19:50;;;;;;;6.68;4.10;;;;;;;;;;5116001;27;20047;-84
2023/06/01 01:22:20;;;;;;;7.37;3.80;;;;;;;;;;5114442;28;20173;-86
2023/06/01 01:25:13;;;;;;;6.05;3.80;;;;;;;;;;5114563;28;20293;-86
2023/06/01 01:27:40;;;;;;;6.78;4.50;;;;;;;;;;5115742;28;20082;-86
2023/06/01 01:30:08;;;;;;;6.70;4.60;;;;;;;;;;5114421;28;20043;-85
2023/06/01 01:32:36;;;;;;;7.90;4.47;;;;;;;;;;5114394;28;20055;-86
2023/06/01 01:35:04;;;;;;;6.28;4.70;;;;;;;;;;5112744;28;20070;-86
2023/06/01 01:37:33;;;;;;;9.57;4.40;;;;;;;;;;5114252;28;20052;-86
2023/06/01 01:40:00;;;;;;;5.75;4.38;;;;;;;;;;5114252;28;20044;-86
2023/06/01 01:42:28;;;;;;;7.15;4.18;;;;;;;;;;5114687;28;20051;-85
2023/06/01 01:44:55;;;;;;;4.28;3.88;;;;;;;;;;5114259;28;20069;-86
2023/06/01 01:47:32;;;;;;;8.93;4.32;;;;;;;;;;5114120;28;20039;-86
2023/06/01 01:50:03;;;;;;;5.05;4.55;;;;;;;;;;5115143;28;20199;-86
2023/06/01 01:52:35;;;;;;;5.55;4.93;;;;;;;;;;5113967;28;20048;-85
2023/06/01 01:55:04;;;;;;;7.38;4.30;;;;;;;;;;5115061;28;20043;-86
2023/06/01 01:57:33;;;;;;;7.43;4.15;;;;;;;;;;5113970;28;20051;-86
2023/06/01 02:00:02;;;;;;;10.70;4.82;;;;;;;;;;5114202;28;20081;-86
2023/06/01 02:02:30;;;;;;;11.10;4.70;;;;;;;;;;5113362;28;20054;-86
2023/06/01 02:04:57;;;;;;;6.43;4.78;;;;;;;;;;5113136;28;20056;-85
2023/06/01 02:07:25;;;;;;;5.43;4.40;;;;;;;;;;5115188;28;20467;-86
2023/06/01 02:09:52;;;;;;;8.25;4.80;;;;;;;;;;5114543;28;20461;-86
2023/06/01 02:12:20;;;;;;;8.20;4.55;;;;;;;;;;5113221;28;20471;-85
2023/06/01 02:14:47;;;;;;;4.50;4.10;;;;;;;;;;5114075;28;20078;-86
2023/06/01 02:17:15;;;;;;;8.57;5.03;;;;;;;;;;5114416;28;20215;-86
2023/06/01 02:19:43;;;;;;;6.85;4.82;;;;;;;;;;5113397;28;20069;-86
2023/06/01 02:22:11;;;;;;;8.15;4.50;;;;;;;;;;5114241;28;20043;-85
2023/06/01 02:24:38;;;;;;;10.02;5.25;;;;;;;;;;5113362;28;20047;-86
2023/06/01 02:27:06;;;;;;;9.50;4.60;;;;;;;;;;5112292;28;20487;-86
2023/06/01 02:29:34;;;;;;;5.68;4.38;;;;;;;;;;5112975;28;20059;-86
2023/06/01 02:32:01;;;;;;;6.05;4.15;;;;;;;;;;5112652;28;20456;-85
2023/06/01 02:34:29;;;;;;;5.97;3.83;;;;;;;;;;5113077;28;20075;-85
2023/06/01 02:36:56;;;;;;;7.18;4.75;;;;;;;;;;5114272;28;20059;-86
2023/06/01 02:39:24;;;;;;;5.35;4.60;;;;;;;;;;5113328;28;20043;-86
2023/06/01 02:41:51;;;;;;;7.38;4.75;;;;;;;;;;5112866;28;20457;-86
2023/06/01 02:44:18;;;;;;;11.82;4.18;;;;;;;;;;5112585;28;20120;-86
2023/06/01 02:46:45;;;;;;;7.75;4.93;;;;;;;;;;5113030;28;20043;-86
2023/06/01 02:49:12;;;;;;;6.18;4.90;;;;;;;;;;5112908;28;20043;-85
2023/06/01 02:51:40;;;;;;;6.55;4.75;;;;;;;;;;5112704;28;20051;-86
2023/06/01 02:54:07;;;;;;;6.35;4.50;;;;;;;;;;5113964;28;20096;-86
2023/06/01 02:56:35;;;;;;;8.23;4.80;;;;;;;;;;5112397;28;20495;-86
2023/06/01 02:59:02;;;;;;;7.93;5.30;;;;;;;;;;5112561;28;20039;-86
2023/06/01 03:01:34;;;;;;;7.10;5.28;;;;;;;;;;5112796;28;20059;-85
2023/06/01 03:04:07;;;;;;;6.90;4.38;;;;;;;;;;5113809;28;20044;-86
2023/06/01 03:06:37;;;;;;;10.52;4.82;;;;;;;;;;5112510;28;20144;-85
2023/06/01 03:09:05;;;;;;;8.18;4.93;;;;;;;;;;5112168;28;20044;-85
2023/06/01 03:11:32;;;;;;;6.93;4.30;;;;;;;;;;5112507;28;20063;-86
2023/06/01 03:14:00;;;;;;;8.02;5.32;;;;;;;;;;5112600;28;20044;-86
2023/06/01 03:16:27;;;;;;;7.13;4.95;;;;;;;;;;5112407;28;20453;-86
2023/06/01 03:18:55;;;;;;;7.00;5.45;;;;;;;;;;5112765;28;20252;-85
2023/06/01 03:21:22;;;;;;;8.30;5.57;;;;;;;;;;5126179;28;20103;-86
2023/06/01 03:23:49;;;;;;;7.75;4.68;;;;;;;;;;5114769;28;20435;-85
2023/06/01 03:26:20;;;;;;;6.88;5.25;;;;;;;;;;5113762;28;20092;-86
2023/06/01 03:28:48;;;;;;;9.25;5.50;;;;;;;;;;5113621;28;20054;-85
2023/06/01 03:31:15;;;;;;;5.82;4.85;;;;;;;;;;5113213;28;20060;-86
2023/06/01 03:33:43;;;;;;;9.23;5.55;;;;;;;;;;5112626;28;20051;-86
2023/06/01 03:36:10;;;;;;;11.00;5.47;;;;;;;;;;5111858;28;20044;-85
2023/06/01 03:38:37;;;;;;;7.95;5.30;;;;;;;;;;5116407;28;20290;-86
2023/06/01 03:41:04;;;;;;;9.15;5.60;;;;;;;;;;5116179;28;20506;-85
2023/06/01 03:43:32;;;;;;;6.35;5.30;;;;;;;;;;5116297;28;20483;-86
2023/06/01 03:45:59;;;;;;;5.63;4.90;;;;;;;;;;5116354;28;20051;-86
2023/06/01 03:48:27;;;;;;;6.47;5.45;;;;;;;;;;5116216;28;20039;-86
2023/06/01 03:50:54;;;;;;;6.25;4.97;;;;;;;;;;5115977;28;20047;-85
2023/06/01 03:53:22;;;;;;;9.75;4.90;;;;;;;;;;5116196;28;20426;-86
2023/06/01 03:55:52;;;;;;;8.05;5.32;;;;;;;;;;5116263;28;20090;-85
2023/06/01 03:58:19;;;;;;;8.85;5.43;;;;;;;;;;5116142;28;20087;-86
2023/06/01 04:00:46;;;;;;;6.80;5.40;;;;;;;;;;5116022;28;20048;-86
2023/06/01 04:03:15;;;;;;;7.68;5.28;;;;;;;;;;5115958;28;20048;-86
2023/06/01 04:05:49;;;;;;;6.70;5.68;;;;;;;;;;5117365;28;20600;-86
2023/06/01 04:08:19;;;;;;;13.88;8.77;;;;;;;;;;5115621;28;20054;-86
2023/06/01 04:10:47;;;;;;;18.08;10.25;;;;;;;;;;5115814;28;20463;-86
2023/06/01 04:13:14;;;;;;;13.85;9.93;;;;;;;;;;5116756;28;20055;-86
2023/06/01 04:15:41;;;;;;;14.15;9.80;;;;;;;;;;5116977;28;20101;-86
2023/06/01 04:18:08;;;;;;;12.90;8.48;;;;;;;;;;5116724;28;20075;-86
2023/06/01 04:20:36;;;;;;;10.27;8.80;;;;;;;;;;5115679;28;20491;-85
2023/06/01 04:23:03;;;;;;;13.77;8.95;;;;;;;;;;5115482;28;20495;-86
2023/06/01 04:25:31;;;;;;;14.35;8.38;;;;;;;;;;5115747;28;20052;-86
2023/06/01 04:27:59;;;;;;;13.38;7.53;;;;;;;;;;5115617;28;20071;-85
2023/06/01 04:30:26;;;;;;;9.27;6.93;;;;;;;;;;5116617;28;20047;-86
2023/06/01 04:32:53;;;;;;;12.32;6.00;;;;;;;;;;5116671;28;20131;-85
2023/06/01 04:35:21;;;;;;;6.40;5.70;;;;;;;;;;5116538;28;20403;-86
2023/06/01 04:37:50;;;;;;;8.57;5.80;;;;;;;;;;5128572;28;20048;-86
2023/06/01 04:40:17;;;;;;;7.47;5.57;;;;;;;;;;5115675;28;20040;-86
2023/06/01 04:42:48;;;;;;;9.10;5.07;;;;;;;;;;5115366;28;20101;-86
2023/06/01 04:45:16;;;;;;;9.30;4.95;;;;;;;;;;5116041;28;20070;-86
2023/06/01 04:47:44;;;;;;;6.97;4.88;;;;;;;;;;5115353;28;20138;-86
2023/06/01 04:50:15;;;;;;;5.38;4.13;;;;;;;;;;5114682;28;20048;-86
2023/06/01 04:52:43;;;;;;;8.25;4.35;;;;;;;;;;5116273;27;20491;-86
2023/06/01 04:55:13;;;;;;;6.75;4.45;;;;;;;;;;5115070;28;20073;-86
2023/06/01 04:57:43;;;;;;;8.45;5.03;;;;;;;;;;5114994;28;20051;-87
2023/06/01 05:00:12;;;;;;;23.45;6.50;;;;;;;;;;5115195;28;20082;-86
2023/06/01 05:02:40;;;;;;;10.38;4.75;;;;;;;;;;5115062;28;20047;-87
2023/06/01 05:05:08;;;;;;;8.40;3.90;;;;;;;;;;5114773;28;20099;-87
2023/06/01 05:07:36;;;;;;;7.43;3.80;;;;;;;;;;5114883;28;20116;-84
2023/06/01 05:10:05;;;;;;;5.00;3.53;;;;;;;;;;5114714;28;20457;-85
2023/06/01 05:12:33;;;;;;;5.93;3.67;;;;;;;;;;5114889;28;20051;-84
2023/06/01 05:15:01;;;;;;;8.13;3.53;;;;;;;;;;5115784;28;20043;-85
2023/06/01 05:17:28;;;;;;;12.63;4.05;;;;;;;;;;5115696;28;20131;-87
2023/06/01 05:19:57;;;;;;;11.38;3.90;;;;;;;;;;5114446;28;20499;-87
2023/06/01 05:22:24;;;;;;;8.25;2.88;;;;;;;;;;5114613;28;20507;-87
2023/06/01 05:24:52;;;;;;;20.27;3.47;;;;;;;;;;5114588;28;20052;-86
2023/06/01 05:27:19;;;;;;;20.50;4.07;;;;;;;;;;5115499;28;20090;-86
2023/06/01 05:29:47;;;;;;;16.95;4.07;;;;;;;;;;5115140;28;20040;-86
2023/06/01 05:32:14;;;;;;;13.68;4.03;;;;;;;;;;5113918;28;20104;-84
2023/06/01 05:34:41;;;;;;;24.65;4.60;;;;;;;;;;5114257;28;20040;-86
2023/06/01 05:37:09;;;;;;;14.65;4.05;;;;;;;;;;5113717;28;20138;-84
2023/06/01 05:39:38;;;;;;;11.07;4.47;;;;;;;;;;5115491;28;20073;-84
2023/06/01 05:42:06;;;;;;;20.33;5.10;;;;;;;;;;5114199;28;20052;-84
2023/06/01 05:44:34;;;;;;;13.85;3.78;;;;;;;;;;5114305;28;20052;-84
2023/06/01 05:47:01;;;;;;;22.10;4.85;;;;;;;;;;5115124;28;20108;-85
2023/06/01 05:49:31;;;;;;;22.88;6.18;;;;;;;;;;5114271;28;20051;-85
2023/06/01 05:51:58;;;;;;;25.55;6.60;;;;;;;;;;5114558;28;20403;-85
2023/06/01 05:54:26;;;;;;;22.85;6.53;;;;;;;;;;5118039;28;20116;-85
2023/06/01 05:56:53;;;;;;;19.10;6.55;;;;;;;;;;5114301;28;20089;-87
2023/06/01 05:59:20;;;;;;;8.77;3.25;;;;;;;;;;5114338;28;20052;-84
2023/06/01 06:01:48;;;;;;;8.07;3.28;;;;;;;;;;5113503;28;20410;-84
2023/06/01 06:04:16;;;;;;;5.05;2.33;;;;;;;;;;5113929;28;20552;-85
2023/06/01 06:06:43;;;;;;;10.05;2.70;;;;;;;;;;5114803;28;20440;-85
2023/06/01 06:09:13;;;;;;;6.70;2.92;;;;;;;;;;5113762;28;20051;-85
2023/06/01 06:11:40;;;;;;;26.17;6.40;;;;;;;;;;5113872;28;20521;-84
2023/06/01 06:14:11;;;;;;;10.07;3.70;;;;;;;;;;5113572;28;20453;-86
2023/06/01 06:16:39;;;;;;;2.25;2.03;;;;;;;;;;5113689;28;20099;-86
2023/06/01 06:19:07;;;;;;;12.40;4.20;;;;;;;;;;5113524;28;20051;-85
2023/06/01 06:21:35;;;;;;;30.95;5.70;;;;;;;;;;5113486;28;20047;-85
2023/06/01 06:24:03;;;;;;;25.63;5.80;;;;;;;;;;5113518;28;20044;-85
2023/06/01 06:26:30;;;;;;;35.08;7.20;;;;;;;;;;5114490;28;20054;-85
2023/06/01 06:28:58;;;;;;;21.35;6.25;;;;;;;;;;5113111;28;20073;-85
2023/06/01 06:31:25;;;;;;;24.75;6.10;;;;;;;;;;5112712;28;20091;-85
2023/06/01 06:33:53;;;;;;;20.48;5.22;;;;;;;;;;5114378;28;20104;-85
2023/06/01 06:36:23;;;;;;;30.25;7.10;;;;;;;;;;5113444;28;20051;-85
2023/06/01 06:38:50;;;;;;;25.42;5.57;;;;;;;;;;5113340;28;20075;-86
2023/06/01 06:41:18;;;;;;;12.38;4.60;;;;;;;;;;5112830;28;20047;-86
2023/06/01 06:43:45;;;;;;;20.13;4.13;;;;;;;;;;5113856;28;20051;-85
2023/06/01 06:46:12;;;;;;;19.42;4.57;;;;;;;;;;5112611;28;20047;-86
2023/06/01 06:48:39;;;;;;;23.00;4.80;;;;;;;;;;5113134;28;20085;-85
2023/06/01 06:51:06;;;;;;;25.65;4.65;;;;;;;;;;5112950;28;20040;-86
2023/06/01 06:53:34;;;;;;;13.25;4.13;;;;;;;;;;5113118;28;20449;-85
2023/06/01 06:56:01;;;;;;;25.17;4.20;;;;;;;;;;5112538;28;20039;-86
2023/06/01 06:58:28;;;;;;;13.43;3.60;;;;;;;;;;5112831;28;20048;-85
2023/06/01 07:00:56;;;;;;;10.50;3.80;;;;;;;;;;5111448;28;20043;-87
2023/06/01 07:03:23;;;;;;;12.65;3.30;;;;;;;;;;5112365;28;20058;-85
2023/06/01 07:05:51;;;;;;;13.25;3.50;;;;;;;;;;5112605;28;20055;-87
2023/06/01 07:08:19;;;;;;;7.60;2.45;;;;;;;;;;5116196;28;20475;-86
2023/06/01 07:10:46;;;;;;;5.20;2.60;;;;;;;;;;5115230;28;20502;-85
2023/06/01 07:13:14;;;;;;;13.95;2.47;;;;;;;;;;5112229;28;20122;-87
2023/06/01 07:15:42;;;;;;;8.43;2.40;;;;;;;;;;5113899;28;20077;-86
2023/06/01 07:18:09;;;;;;;8.07;2.30;;;;;;;;;;5113670;28;20048;-86
2023/06/01 07:20:36;;;;;;;10.63;2.42;;;;;;;;;;5112579;28;20130;-86
2023/06/01 07:23:03;;;;;;;5.72;1.92;;;;;;;;;;5113298;28;20044;-86
2023/06/01 07:25:31;;;;;;;7.05;2.00;;;;;;;;;;5111540;28;20040;-87
2023/06/01 07:27:58;;;;;;;4.53;2.00;;;;;;;;;;5112287;28;20059;-84
2023/06/01 07:30:25;;;;;;;5.22;1.52;;;;;;;;;;5112422;28;20047;-86
2023/06/01 07:32:54;;;;;;;4.32;1.83;;;;;;;;;;5112296;28;20492;-86
2023/06/01 07:35:22;;;;;;;1.83;1.67;;;;;;;;;;5112553;28;20058;-88
2023/06/01 07:37:49;;;;;;;2.28;1.17;;;;;;;;;;5112353;28;20475;-86
2023/06/01 07:40:16;;;;;;;2.08;1.40;;;;;;;;;;5112150;28;20044;-86
2023/06/01 07:42:44;;;;;;;2.65;1.23;;;;;;;;;;5113332;28;20425;-85
2023/06/01 07:45:11;;;;;;;1.80;1.63;;;;;;;;;;5112224;28;20079;-87
2023/06/01 07:47:38;;;;;;;2.58;1.00;;;;;;;;;;5112716;28;20491;-89
2023/06/01 07:50:06;;;;;;;1.55;1.20;;;;;;;;;;5112619;28;20040;-87
2023/06/01 07:52:33;;;;;;;2.33;1.20;;;;;;;;;;5113440;28;20487;-87
2023/06/01 07:55:03;;;;;;;2.05;1.30;;;;;;;;;;5112418;28;20043;-87
2023/06/01 07:57:30;;;;;;;4.22;1.52;;;;;;;;;;5112426;28;20480;-86
2023/06/01 07:59:57;;;;;;;2.58;1.17;;;;;;;;;;5112391;28;20055;-86
2023/06/01 08:02:25;;;;;;;1.98;1.33;;;;;;;;;;5112462;28;20052;-87
2023/06/01 08:04:56;;;;;;;5.78;1.50;;;;;;;;;;5113016;28;20608;-86
2023/06/01 08:07:27;;;;;;;3.30;1.48;;;;;;;;;;5112432;28;20050;-86
2023/06/01 08:09:55;;;;;;;6.53;1.45;;;;;;;;;;5112497;28;20121;-87
2023/06/01 08:12:22;;;;;;;6.38;1.73;;;;;;;;;;5112606;28;20044;-86
2023/06/01 08:14:51;;;;;;;3.92;1.73;;;;;;;;;;5112192;28;20047;-86
2023/06/01 08:17:19;;;;;;;2.17;1.60;;;;;;;;;;5111962;28;20050;-88
2023/06/01 08:19:47;;;;;;;2.83;1.40;;;;;;;;;;5113243;28;20158;-88
2023/06/01 08:22:15;;;;;;;3.42;1.58;;;;;;;;;;5112963;28;20047;-90
2023/06/01 08:24:43;;;;;;;3.53;1.55;;;;;;;;;;5118316;28;20048;-88
2023/06/01 08:27:20;;;;;;;6.00;1.48;;;;;;;;;;5120616;28;20506;-86
2023/06/01 08:29:51;;;;;;;4.72;1.63;;;;;;;;;;5117000;28;20051;-88
2023/06/01 08:32:21;;;;;;;2.90;1.42;;;;;;;;;;5116329;28;20048;-92
2023/06/01 08:34:48;;;;;;;2.10;1.45;;;;;;;;;;5116186;28;20048;-89
2023/06/01 08:37:16;;;;;;;11.02;1.83;;;;;;;;;;5115647;28;20055;-88
2023/06/01 08:39:43;;;;;;;14.27;1.92;;;;;;;;;;5115641;28;20043;-88
2023/06/01 08:42:15;;;;;;;4.65;1.20;;;;;;;;;;5117072;28;20467;-88
2023/06/01 08:44:42;;;;;;;4.38;1.10;;;;;;;;;;5117192;28;20051;-88
2023/06/01 08:47:10;;;;;;;5.00;1.20;;;;;;;;;;5115812;28;20102;-87
2023/06/01 08:49:41;;;;;;;4.68;1.13;;;;;;;;;;5115727;28;20092;-89
2023/06/01 08:52:11;;;;;;;4.30;1.20;;;;;;;;;;5116365;28;20078;-90
2023/06/01 08:54:39;;;;;;;4.63;1.42;;;;;;;;;;5115576;28;20087;-87
2023/06/01 08:57:07;;;;;;;2.05;1.25;;;;;;;;;;5115490;28;20071;-92
2023/06/01 08:59:43;;;;;;;4.75;1.30;;;;;;;;;;5116429;28;20130;-92
2023/06/01 09:02:10;;;;;;;15.20;1.92;;;;;;;;;;5099666;28;20060;-89
2023/06/01 09:04:42;;;;;;;7.95;1.30;;;;;;;;;;5115594;28;20102;-89
2023/06/01 09:07:09;;;;;;;10.20;1.30;;;;;;;;;;5115661;28;20052;-88
2023/06/01 09:09:36;;;;;;;8.85;1.50;;;;;;;;;;5115695;28;20469;-88
2023/06/01 09:12:19;;;;;;;3.55;1.00;;;;;;;;;;5115413;28;20089;-87
2023/06/01 09:14:47;;;;;;;10.80;1.27;;;;;;;;;;5115542;28;20047;-88
2023/06/01 09:17:15;;;;;;;4.50;1.20;;;;;;;;;;5115139;28;20040;-93
2023/06/01 09:19:46;;;;;;;1.33;1.15;;;;;;;;;;5115671;28;20075;-92
2023/06/01 09:22:13;;;;;;;3.28;1.30;;;;;;;;;;5115687;28;20051;-91
2023/06/01 09:24:41;;;;;;;6.13;1.27;;;;;;;;;;5115597;28;20047;-86
2023/06/01 09:27:09;;;;;;;5.32;1.30;;;;;;;;;;5115727;28;20112;-89
2023/06/01 09:29:36;;;;;;;4.40;1.33;;;;;;;;;;5115459;28;20070;-89
2023/06/01 09:32:03;;;;;;;1.65;1.15;;;;;;;;;;5114858;28;20060;-87
2023/06/01 09:34:31;;;;;;;3.33;1.33;;;;;;;;;;5115369;28;20104;-89
2023/06/01 09:37:05;;;;;;;3.40;1.50;;;;;;;;;;5114660;28;20044;-90
2023/06/01 09:39:34;;;;;;;3.67;1.48;;;;;;;;;;5116494;28;20048;-91
2023/06/01 09:42:06;;;;;;;18.50;2.42;;;;;;;;;;5125289;28;20103;-88
2023/06/01 09:44:37;;;;;;;2.33;1.42;;;;;;;;;;5116869;28;20065;-91
2023/06/01 09:47:06;;;;;;;2.25;1.13;;;;;;;;;;5114659;28;20097;-89
2023/06/01 09:49:36;;;;;;;3.50;1.25;;;;;;;;;;5115005;28;20043;-88
2023/06/01 09:52:07;;;;;;;7.03;1.48;;;;;;;;;;5114513;28;20457;-87
2023/06/01 09:54:35;;;;;;;4.68;1.10;;;;;;;;;;5115761;28;20048;-92
2023/06/01 09:57:03;;;;;;;2.05;1.33;;;;;;;;;;5115049;28;20067;-89
2023/06/01 09:59:47;;;;;;;1.58;1.25;;;;;;;;;;5115514;28;20446;-86
2023/06/01 10:02:18;;;;;;;1.73;1.30;;;;;;;;;;5114971;28;20104;-88
2023/06/01 10:04:47;;;;;;;6.60;1.42;;;;;;;;;;5115120;28;20055;-89
2023/06/01 10:07:16;;;;;;;3.22;1.00;;;;;;;;;;5114578;28;20051;-89
2023/06/01 10:09:45;;;;;;;3.80;1.23;;;;;;;;;;5116086;28;20047;-91
2023/06/01 10:12:12;;;;;;;2.58;1.33;;;;;;;;;;5114338;28;20087;-89
2023/06/01 10:14:40;;;;;;;1.45;1.25;;;;;;;;;;5114541;28;20047;-90
2023/06/01 10:17:07;;;;;;;3.28;1.20;;;;;;;;;;5114656;28;20051;-88
2023/06/01 10:19:39;;;;;;;1.33;0.90;;;;;;;;;;5116468;28;20097;-90
2023/06/01 10:22:07;;;;;;;1.30;1.20;;;;;;;;;;5114357;28;20066;-88
2023/06/01 10:24:40;;;;;;;7.22;1.70;;;;;;;;;;5114805;28;20407;-88
2023/06/01 10:27:25;;;;;;;5.45;1.30;;;;;;;;;;5114495;28;20048;-89
2023/06/01 10:29:55;;;;;;;5.60;1.38;;;;;;;;;;5114563;28;20086;-90
2023/06/01 10:32:45;;;;;;;3.80;1.50;;;;;;;;;;5115300;28;20514;-95
2023/06/01 10:35:33;;;;;;;2.90;1.30;;;;;;;;;;5114752;28;20073;-88
2023/06/01 10:38:09;;;;;;;2.55;1.30;;;;;;;;;;5113812;28;20044;-89
2023/06/01 10:40:38;;;;;;;2.65;1.27;;;;;;;;;;5114989;28;20043;-90
2023/06/01 10:43:08;;;;;;;2.28;1.30;;;;;;;;;;5113702;28;20043;-93
2023/06/01 10:45:35;;;;;;;5.25;1.27;;;;;;;;;;5098531;28;20055;-91
2023/06/01 10:48:03;;;;;;;7.93;1.55;;;;;;;;;;5114099;28;20048;-87
2023/06/01 10:50:31;;;;;;;2.47;1.17;;;;;;;;;;5113538;28;20047;-88
2023/06/01 10:53:18;;;;;;;6.53;1.23;;;;;;;;;;5113766;28;20596;-88
2023/06/01 10:55:45;;;;;;;1.48;1.30;;;;;;;;;;5119277;28;20040;-89
2023/06/01 10:58:21;;;;;;;2.83;1.20;;;;;;;;;;5126477;28;20047;-90
2023/06/01 11:00:48;;;;;;;3.25;1.05;;;;;;;;;;5123482;28;20043;-92
2023/06/01 11:03:17;;;;;;;6.18;1.60;;;;;;;;;;5114219;28;20048;-90
2023/06/01 11:05:47;;;;;;;3.83;1.42;;;;;;;;;;5113675;28;20094;-91
2023/06/01 11:08:18;;;;;;;3.10;1.48;;;;;;;;;;5115029;28;20048;-88
2023/06/01 11:11:02;;;;;;;4.47;1.30;;;;;;;;;;5114406;28;20054;-92
2023/06/01 11:13:37;;;;;;;4.07;1.40;;;;;;;;;;5117002;28;20051;-94
2023/06/01 11:16:04;;;;;;;2.63;1.13;;;;;;;;;;5114166;28;20047;-91
2023/06/01 11:18:41;;;;;;;6.68;1.30;;;;;;;;;;5113753;28;20047;-88
2023/06/01 11:21:16;;;;;;;2.28;1.10;;;;;;;;;;5113118;28;20134;-90
2023/06/01 11:23:45;;;;;;;5.05;1.27;;;;;;;;;;5113707;28;20100;-92
2023/06/01 11:26:18;;;;;;;2.05;1.50;;;;;;;;;;5113499;28;20039;-90
2023/06/01 11:28:47;;;;;;;1.63;1.42;;;;;;;;;;5113457;28;20055;-89
2023/06/01 11:31:18;;;;;;;3.72;1.70;;;;;;;;;;5112956;28;20051;-90
2023/06/01 11:33:52;;;;;;;3.65;1.40;;;;;;;;;;5113766;28;20134;-93
2023/06/01 11:36:23;;;;;;;;;;;;;;;;;;5116077;28;20101;-91
2023/06/01 11:38:51;;;;;;;3.08;1.60;;;;;;;;;;5113699;28;20324;-91
2023/06/01 11:41:22;;;;;;;10.52;2.05;;;;;;;;;;5113046;28;20134;-92
2023/06/01 11:43:56;;;;;;;3.15;1.48;;;;;;;;;;5113274;28;20439;-88
2023/06/01 11:46:24;;;;;;;3.45;1.45;;;;;;;;;;5114284;28;20052;-85
2023/06/01 11:49:05;;;;;;;4.85;1.60;;;;;;;;;;5115180;28;20044;-91
2023/06/01 11:51:34;;;;;;;6.63;1.55;;;;;;;;;;5113080;28;20059;-88
2023/06/01 11:54:01;;;;;;;8.40;1.90;;;;;;;;;;5114208;28;20077;-84
2023/06/01 11:56:33;;;;;;;4.78;1.67;;;;;;;;;;5112963;28;20449;-91
2023/06/01 11:59:01;;;;;;;3.58;1.45;;;;;;;;;;5115335;28;20083;-89
2023/06/01 12:01:28;;;;;;;3.13;1.60;;;;;;;;;;5119804;28;20047;-91
2023/06/01 12:03:56;;;;;;;3.47;1.70;;;;;;;;;;5117766;28;20048;-90
2023/06/01 12:06:26;;;;;;;5.93;1.40;;;;;;;;;;5116822;28;20130;-89
2023/06/01 12:08:54;;;;;;;1.70;1.60;;;;;;;;;;5117087;28;20064;-88
2023/06/01 12:11:23;;;;;;;2.05;1.60;;;;;;;;;;5117318;28;20552;-89
2023/06/01 12:13:50;;;;;;;3.67;1.50;;;;;;;;;;5126934;28;20043;-89
2023/06/01 12:16:17;;;;;;;1.92;1.40;;;;;;;;;;5128363;28;20079;-92
2023/06/01 12:18:49;;;;;;;2.72;1.63;;;;;;;;;;5116846;28;20143;-88
2023/06/01 12:21:17;;;;;;;3.10;1.50;;;;;;;;;;5117829;28;20384;-89
2023/06/01 12:23:51;;;;;;;3.10;1.48;;;;;;;;;;5116866;28;20126;-89
2023/06/01 12:26:18;;;;;;;4.78;1.60;;;;;;;;;;5116578;28;20044;-89
2023/06/01 12:28:54;;;;;;;9.98;1.88;;;;;;;;;;5116727;28;20415;-87
2023/06/01 12:31:27;;;;;;;3.13;1.30;;;;;;;;;;5116445;28;20051;-90
2023/06/01 12:33:55;;;;;;;4.00;1.40;;;;;;;;;;5116415;28;20044;-88
2023/06/01 12:36:31;;;;;;;3.97;1.60;;;;;;;;;;5116508;28;20430;-85
2023/06/01 12:39:01;;;;;;;1.40;1.30;;;;;;;;;;5116236;28;20515;-86
2023/06/01 12:41:29;;;;;;;1.73;1.05;;;;;;;;;;5116415;28;20044;-90
2023/06/01 12:43:57;;;;;;;6.20;1.40;;;;;;;;;;5116298;28;20043;-88
2023/06/01 12:46:26;;;;;;;1.42;1.17;;;;;;;;;;5116362;28;20096;-86
2023/06/01 12:48:54;;;;;;;2.95;1.27;;;;;;;;;;5117091;28;20087;-92
2023/06/01 12:51:21;;;;;;;2.33;1.23;;;;;;;;;;5100085;28;20040;-91
2023/06/01 12:53:49;;;;;;;4.97;1.50;;;;;;;;;;5116418;28;20055;-86
2023/06/01 12:56:16;;;;;;;2.70;1.27;;;;;;;;;;5117070;28;20043;-88
2023/06/01 12:58:44;;;;;;;3.05;1.30;;;;;;;;;;5115972;28;20052;-87
2023/06/01 13:01:11;;;;;;;1.65;1.45;;;;;;;;;;5115571;28;20108;-91
2023/06/01 13:03:40;;;;;;;1.75;1.30;;;;;;;;;;5116370;28;20055;-92
2023/06/01 13:06:08;;;;;;;2.55;1.25;;;;;;;;;;5119994;28;20047;-90
2023/06/01 13:08:36;;;;;;;1.85;1.67;;;;;;;;;;5116822;28;20104;-89
2023/06/01 13:11:05;;;;;;;1.30;1.20;;;;;;;;;;5116496;28;20044;-88
2023/06/01 13:13:32;;;;;;;2.10;1.20;;;;;;;;;;5116562;28;20082;-87
2023/06/01 13:16:00;;;;;;;13.15;2.13;;;;;;;;;;5115628;28;20056;-88
2023/06/01 13:18:27;;;;;;;1.58;1.08;;;;;;;;;;5116409;28;20491;-89
2023/06/01 13:20:56;;;;;;;4.70;1.40;;;;;;;;;;5115304;28;20055;-90
2023/06/01 13:23:23;;;;;;;1.75;1.23;;;;;;;;;;5115943;28;20055;-89
2023/06/01 13:25:50;;;;;;;2.83;0.93;;;;;;;;;;5114810;28;20051;-88
2023/06/01 13:28:19;;;;;;;3.58;1.10;;;;;;;;;;5116100;28;20097;-88
2023/06/01 13:30:46;;;;;;;3.58;1.23;;;;;;;;;;5123584;28;20047;-87
2023/06/01 13:33:14;;;;;;;4.60;1.40;;;;;;;;;;5125466;27;20039;-91
2023/06/01 13:35:41;;;;;;;4.78;1.40;;;;;;;;;;5114663;28;20078;-88
2023/06/01 13:38:08;;;;;;;2.47;1.42;;;;;;;;;;5115415;28;20559;-88
2023/06/01 13:40:36;;;;;;;20.08;2.28;;;;;;;;;;5115114;28;20044;-89
2023/06/01 13:43:03;;;;;;;3.92;1.50;;;;;;;;;;5115100;28;20047;-88
2023/06/01 13:45:31;;;;;;;2.88;1.40;;;;;;;;;;5114921;28;20058;-87
2023/06/01 13:47:58;;;;;;;1.92;1.30;;;;;;;;;;5114705;28;20048;-88
2023/06/01 13:50:26;;;;;;;5.15;1.75;;;;;;;;;;5114711;28;20105;-90
2023/06/01 13:52:53;;;;;;;12.90;1.83;;;;;;;;;;5115281;28;20059;-90
2023/06/01 13:55:21;;;;;;;11.07;2.20;;;;;;;;;;5114982;28;20458;-86
2023/06/01 13:57:50;;;;;;;28.42;3.42;;;;;;;;;;5113991;28;20043;-86
2023/06/01 14:00:18;;;;;;;11.45;2.38;;;;;;;;;;5115162;28;20168;-92
2023/06/01 14:02:48;;;;;;;7.30;2.53;;;;;;;;;;5114600;28;20093;-90
2023/06/01 14:05:16;;;;;;;2.60;1.80;;;;;;;;;;5114471;28;20138;-86
2023/06/01 14:07:51;;;;;;;5.68;2.25;;;;;;;;;;5114579;28;20483;-90
2023/06/01 14:10:19;;;;;;;4.80;1.83;;;;;;;;;;5114662;28;20470;-91
2023/06/01 14:12:46;;;;;;;4.95;1.90;;;;;;;;;;5114563;28;20047;-87
2023/06/01 14:15:13;;;;;;;5.15;2.38;;;;;;;;;;5114162;28;20052;-87
2023/06/01 14:17:40;;;;;;;8.50;2.60;;;;;;;;;;5114507;28;20047;-87
2023/06/01 14:20:09;;;;;;;2.78;2.38;;;;;;;;;;5114464;28;20047;-92
2023/06/01 14:22:36;;;;;;;4.53;2.42;;;;;;;;;;5113764;28;20052;-90
2023/06/01 14:25:03;;;;;;;4.25;3.03;;;;;;;;;;5115080;28;20051;-90
2023/06/01 14:27:31;;;;;;;4.75;3.17;;;;;;;;;;5117311;28;20044;-91
2023/06/01 14:30:00;;;;;;;5.38;3.75;;;;;;;;;;5113712;28;20044;-89
2023/06/01 14:32:28;;;;;;;6.63;3.75;;;;;;;;;;5114110;28;20059;-87
2023/06/01 14:34:55;;;;;;;6.03;3.53;;;;;;;;;;5114889;28;20066;-92
2023/06/01 14:37:22;;;;;;;5.70;3.30;;;;;;;;;;5115138;28;20081;-89
2023/06/01 14:39:54;;;;;;;4.45;3.40;;;;;;;;;;5115393;28;20096;-89
2023/06/01 14:42:21;;;;;;;5.38;3.45;;;;;;;;;;5114521;28;20055;-86
2023/06/01 14:44:48;;;;;;;4.20;3.80;;;;;;;;;;5113769;28;20048;-86
2023/06/01 14:47:31;;;;;;;4.70;4.20;;;;;;;;;;5117198;28;20044;-87
2023/06/01 14:49:59;;;;;;;8.88;3.20;;;;;;;;;;5121924;28;20079;-86